createdAt,value
2022-11-30T00:01:41.468Z,98.90
2022-11-30T00:04:10.442Z,98.70
2022-11-30T00:06:43.339Z,99.05
2022-11-30T00:09:12.235Z,99.09
2022-11-30T00:11:41.127Z,99.08
2022-11-30T00:14:10.311Z,99.23
2022-11-30T00:16:39.402Z,99.29
2022-11-30T00:19:08.414Z,99.43
2022-11-30T00:21:40.701Z,99.28
2022-11-30T00:24:10.265Z,99.36
2022-11-30T00:26:39.180Z,99.44
2022-11-30T00:29:08.497Z,99.64
2022-11-30T00:31:39.109Z,99.43
2022-11-30T00:34:07.876Z,99.57
2022-11-30T00:36:36.475Z,99.58
2022-11-30T00:39:05.989Z,99.55
2022-11-30T00:41:34.586Z,99.57
2022-11-30T00:44:03.230Z,99.65
2022-11-30T00:46:31.840Z,99.61
2022-11-30T00:49:00.410Z,99.61
2022-11-30T00:51:28.986Z,99.59
2022-11-30T00:53:57.877Z,99.86
2022-11-30T00:56:26.665Z,99.92
2022-11-30T00:58:55.571Z,99.89
2022-11-30T01:01:24.398Z,100.00
2022-11-30T01:03:53.220Z,100.00
2022-11-30T01:06:22.009Z,100.00
2022-11-30T01:08:51.226Z,100.00
2022-11-30T01:11:31.357Z,100.00
2022-11-30T01:14:01.390Z,100.00
2022-11-30T01:16:32.473Z,100.00
2022-11-30T01:19:02.278Z,100.00
2022-11-30T01:21:30.910Z,100.00
2022-11-30T01:23:59.810Z,100.00
2022-11-30T01:26:29.627Z,100.00
2022-11-30T01:28:58.405Z,100.00
2022-11-30T01:31:27.207Z,100.00
2022-11-30T01:33:56.714Z,100.00
2022-11-30T01:36:26.919Z,100.00
2022-11-30T01:38:57.856Z,100.00
2022-11-30T01:41:32.160Z,100.00
2022-11-30T01:44:07.020Z,100.00
2022-11-30T01:46:41.016Z,100.00
2022-11-30T01:49:09.488Z,100.00
2022-11-30T01:51:52.729Z,100.00
2022-11-30T01:54:24.452Z,100.00
2022-11-30T01:56:57.244Z,100.00
2022-11-30T01:59:26.666Z,100.00
2022-11-30T02:01:55.859Z,100.00
2022-11-30T02:04:30.183Z,100.00
2022-11-30T02:07:00.297Z,100.00
2022-11-30T02:09:29.601Z,100.00
2022-11-30T02:12:08.221Z,100.00
2022-11-30T02:14:47.226Z,100.00
2022-11-30T02:17:35.439Z,100.00
2022-11-30T02:20:34.787Z,100.00
2022-11-30T02:23:29.587Z,100.00
2022-11-30T02:26:34.228Z,100.00
2022-11-30T02:29:12.825Z,100.00
2022-11-30T02:31:49.493Z,100.00
2022-11-30T02:34:20.025Z,100.00
2022-11-30T02:36:49.326Z,100.00
2022-11-30T02:39:21.576Z,100.00
2022-11-30T02:41:50.387Z,100.00
2022-11-30T02:44:21.027Z,100.00
2022-11-30T02:47:01.495Z,100.00
2022-11-30T02:49:38.886Z,100.00
2022-11-30T02:52:08.887Z,100.00
2022-11-30T02:54:37.706Z,100.00
2022-11-30T02:57:06.369Z,100.00
2022-11-30T02:59:35.267Z,100.00
2022-11-30T03:02:04.033Z,100.00
2022-11-30T03:04:32.615Z,100.00
2022-11-30T03:07:02.138Z,100.00
2022-11-30T03:09:30.721Z,100.00
2022-11-30T03:11:59.416Z,100.00
2022-11-30T03:14:28.596Z,100.00
2022-11-30T03:16:58.117Z,100.00
2022-11-30T03:19:26.796Z,100.00
2022-11-30T03:21:55.587Z,100.00
2022-11-30T03:24:24.573Z,100.00
2022-11-30T03:26:53.572Z,100.00
2022-11-30T03:29:22.362Z,100.00
2022-11-30T03:31:51.146Z,100.00
2022-11-30T03:34:20.022Z,100.00
2022-11-30T03:36:49.848Z,100.00
2022-11-30T03:39:18.635Z,100.00
2022-11-30T03:41:47.615Z,100.00
2022-11-30T03:44:16.830Z,100.00
2022-11-30T03:46:45.634Z,100.00
2022-11-30T03:49:14.606Z,100.00
2022-11-30T03:51:43.290Z,100.00
2022-11-30T03:54:12.164Z,100.00
2022-11-30T03:56:42.194Z,100.00
2022-11-30T03:59:10.757Z,100.00
2022-11-30T04:01:41.461Z,100.00
2022-11-30T04:04:12.560Z,100.00
2022-11-30T04:06:41.011Z,100.00
2022-11-30T04:09:11.091Z,100.00
2022-11-30T04:11:39.819Z,100.00
2022-11-30T04:14:08.922Z,100.00
2022-11-30T04:16:37.603Z,100.00
2022-11-30T04:19:06.701Z,100.00
2022-11-30T04:21:36.001Z,100.00
2022-11-30T04:24:05.087Z,100.00
2022-11-30T04:26:33.888Z,100.00
2022-11-30T04:29:04.619Z,100.00
2022-11-30T04:31:33.563Z,100.00
2022-11-30T04:34:03.406Z,100.00
2022-11-30T04:36:31.929Z,100.00
2022-11-30T04:39:00.812Z,100.00
2022-11-30T04:41:29.469Z,100.00
2022-11-30T04:43:58.174Z,100.00
2022-11-30T04:46:27.000Z,100.00
2022-11-30T04:48:57.390Z,100.00
2022-11-30T04:51:27.219Z,100.00
2022-11-30T04:53:55.886Z,100.00
2022-11-30T04:56:24.866Z,100.00
2022-11-30T04:58:53.972Z,100.00
2022-11-30T05:01:24.057Z,100.00
2022-11-30T05:03:52.967Z,100.00
2022-11-30T05:06:21.542Z,100.00
2022-11-30T05:08:51.267Z,100.00
2022-11-30T05:11:20.140Z,100.00
2022-11-30T05:13:48.929Z,100.00
2022-11-30T05:16:18.382Z,100.00
2022-11-30T05:18:47.451Z,100.00
2022-11-30T05:21:17.132Z,100.00
2022-11-30T05:23:47.465Z,100.00
2022-11-30T05:26:16.485Z,100.00
2022-11-30T05:28:45.255Z,100.00
2022-11-30T05:31:14.302Z,100.00
2022-11-30T05:33:43.124Z,100.00
2022-11-30T05:36:12.014Z,100.00
2022-11-30T05:38:40.593Z,100.00
2022-11-30T05:41:09.496Z,100.00
2022-11-30T05:43:38.582Z,100.00
2022-11-30T05:46:09.826Z,100.00
2022-11-30T05:48:39.120Z,100.00
2022-11-30T05:51:10.395Z,100.00
2022-11-30T05:53:39.564Z,100.00
2022-11-30T05:56:11.088Z,100.00
2022-11-30T05:58:40.015Z,100.00
2022-11-30T06:01:09.411Z,100.00
2022-11-30T06:03:38.106Z,100.00
2022-11-30T06:06:08.215Z,100.00
2022-11-30T06:08:37.007Z,100.00
2022-11-30T06:11:08.508Z,100.00
2022-11-30T06:13:37.468Z,100.00
2022-11-30T06:16:06.958Z,100.00
2022-11-30T06:18:37.278Z,100.00
2022-11-30T06:21:10.045Z,100.00
2022-11-30T06:23:38.748Z,100.00
2022-11-30T06:26:09.912Z,100.00
2022-11-30T06:28:41.308Z,100.00
2022-11-30T06:31:12.833Z,100.00
2022-11-30T06:33:41.788Z,100.00
2022-11-30T06:36:10.686Z,100.00
2022-11-30T06:38:39.447Z,100.00
2022-11-30T06:41:10.190Z,100.00
2022-11-30T06:43:40.207Z,100.00
2022-11-30T06:46:09.043Z,100.00
2022-11-30T06:48:39.213Z,100.00
2022-11-30T06:51:09.164Z,100.00
2022-11-30T06:53:39.143Z,100.00
2022-11-30T06:56:10.739Z,100.00
2022-11-30T06:58:40.830Z,100.00
2022-11-30T07:01:14.623Z,100.00
2022-11-30T07:03:44.094Z,100.00
2022-11-30T07:06:14.167Z,100.00
2022-11-30T07:08:43.545Z,100.00
2022-11-30T07:11:13.120Z,100.00
2022-11-30T07:13:41.842Z,100.00
2022-11-30T07:16:11.801Z,100.00
2022-11-30T07:18:40.744Z,100.00
2022-11-30T07:21:11.057Z,100.00
2022-11-30T07:23:58.406Z,100.00
2022-11-30T07:26:28.728Z,100.00
2022-11-30T07:28:59.101Z,100.00
2022-11-30T07:31:31.769Z,100.00
2022-11-30T07:34:05.810Z,100.00
2022-11-30T07:36:35.111Z,100.00
2022-11-30T07:39:04.545Z,100.00
2022-11-30T07:41:33.244Z,100.00
2022-11-30T07:44:08.100Z,100.00
2022-11-30T07:46:38.386Z,100.00
2022-11-30T07:49:10.650Z,100.00
2022-11-30T07:51:39.228Z,100.00
2022-11-30T07:54:08.210Z,100.00
2022-11-30T07:56:36.707Z,100.00
2022-11-30T07:59:05.581Z,100.00
2022-11-30T08:01:35.124Z,100.00
2022-11-30T08:04:04.765Z,100.00
2022-11-30T08:06:34.401Z,100.00
2022-11-30T08:09:04.465Z,100.00
2022-11-30T08:11:36.697Z,100.00
2022-11-30T08:14:06.588Z,100.00
2022-11-30T08:16:38.656Z,100.00
2022-11-30T08:19:07.562Z,100.00
2022-11-30T08:21:36.355Z,100.00
2022-11-30T08:24:06.145Z,100.00
2022-11-30T08:26:35.052Z,100.00
2022-11-30T08:29:04.314Z,100.00
2022-11-30T08:31:35.676Z,100.00
2022-11-30T08:34:08.037Z,100.00
2022-11-30T08:36:37.191Z,100.00
2022-11-30T08:39:07.688Z,100.00
2022-11-30T08:41:39.911Z,100.00
2022-11-30T08:44:08.546Z,100.00
2022-11-30T08:46:53.913Z,100.00
2022-11-30T08:49:24.753Z,100.00
2022-11-30T08:54:50.513Z,100.00
2022-11-30T08:57:21.740Z,100.00
2022-11-30T08:59:50.647Z,100.00
2022-11-30T09:02:20.310Z,100.00
2022-11-30T09:04:51.525Z,100.00
2022-11-30T09:07:20.570Z,100.00
2022-11-30T09:09:52.357Z,100.00
2022-11-30T09:12:21.125Z,100.00
2022-11-30T09:14:55.907Z,100.00
2022-11-30T09:17:27.015Z,100.00
2022-11-30T09:19:55.579Z,100.00
2022-11-30T09:22:25.011Z,100.00
2022-11-30T09:24:54.283Z,100.00
2022-11-30T09:27:24.203Z,100.00
2022-11-30T09:29:53.899Z,100.00
2022-11-30T09:32:22.473Z,100.00
2022-11-30T09:34:51.349Z,100.00
2022-11-30T09:37:20.462Z,100.00
2022-11-30T09:39:49.259Z,100.00
2022-11-30T09:42:17.960Z,100.00
2022-11-30T09:44:59.427Z,100.00
2022-11-30T09:47:56.778Z,100.00
2022-11-30T09:50:29.562Z,100.00
2022-11-30T09:53:02.957Z,100.00
2022-11-30T09:55:34.816Z,100.00
2022-11-30T09:58:04.725Z,100.00
2022-11-30T10:00:35.259Z,100.00
2022-11-30T10:03:06.382Z,100.00
2022-11-30T10:06:27.515Z,100.00
2022-11-30T10:09:35.826Z,100.00
2022-11-30T10:12:20.761Z,100.00
2022-11-30T10:15:00.105Z,100.00
2022-11-30T10:17:54.217Z,100.00
2022-11-30T10:20:39.894Z,100.00
2022-11-30T10:23:20.664Z,100.00
2022-11-30T10:26:04.215Z,100.00
2022-11-30T10:28:55.826Z,100.00
2022-11-30T10:31:36.562Z,100.00
2022-11-30T10:34:33.128Z,100.00
2022-11-30T10:37:06.849Z,100.00
2022-11-30T10:39:38.802Z,100.00
2022-11-30T10:42:10.343Z,100.00
2022-11-30T10:44:41.605Z,100.00
2022-11-30T10:47:20.527Z,100.00
2022-11-30T10:49:50.842Z,100.00
2022-11-30T10:52:24.573Z,100.00
2022-11-30T10:54:59.121Z,100.00
2022-11-30T10:57:32.514Z,100.00
2022-11-30T11:00:05.588Z,100.00
2022-11-30T11:02:46.187Z,100.00
2022-11-30T11:05:23.233Z,100.00
2022-11-30T11:08:07.373Z,100.00
2022-11-30T11:10:50.037Z,100.00
2022-11-30T11:13:40.346Z,100.00
2022-11-30T11:16:11.560Z,100.00
2022-11-30T11:18:55.638Z,100.00
2022-11-30T11:21:24.958Z,100.00
2022-11-30T11:23:55.287Z,100.00
2022-11-30T11:26:29.300Z,100.00
2022-11-30T11:29:02.994Z,100.00
2022-11-30T11:31:44.664Z,100.00
2022-11-30T11:34:37.112Z,100.00
2022-11-30T11:37:15.430Z,100.00
2022-11-30T11:39:44.127Z,100.00
2022-11-30T11:42:22.079Z,100.00
2022-11-30T11:44:56.665Z,100.00
2022-11-30T11:47:35.168Z,99.98
2022-11-30T11:53:25.704Z,99.94
2022-11-30T11:56:02.238Z,99.96
2022-11-30T11:59:01.648Z,99.87
2022-11-30T12:02:00.071Z,99.83
2022-11-30T12:04:49.036Z,100.00
2022-11-30T12:07:37.812Z,100.00
2022-11-30T12:13:22.622Z,100.00
2022-11-30T12:16:12.708Z,100.00
2022-11-30T12:19:14.887Z,100.00
2022-11-30T12:22:05.391Z,100.00
2022-11-30T12:24:52.800Z,100.00
2022-11-30T12:27:40.328Z,100.00
2022-11-30T12:30:26.243Z,100.00
2022-11-30T12:33:13.771Z,100.00
2022-11-30T12:35:55.847Z,100.00
2022-11-30T12:38:25.550Z,100.00
2022-11-30T12:41:31.210Z,100.00
2022-11-30T12:44:29.167Z,100.00
2022-11-30T12:47:22.538Z,100.00
2022-11-30T12:50:11.091Z,100.00
2022-11-30T12:52:51.867Z,100.00
2022-11-30T12:55:43.682Z,100.00
2022-11-30T12:58:30.402Z,100.00
2022-11-30T13:01:05.805Z,100.00
2022-11-30T13:04:04.841Z,100.00
2022-11-30T13:06:34.861Z,99.95
2022-11-30T13:09:19.224Z,99.83
2022-11-30T13:11:55.775Z,99.57
2022-11-30T13:14:26.610Z,99.60
2022-11-30T13:17:19.565Z,99.62
2022-11-30T13:20:08.507Z,99.81
2022-11-30T13:23:04.669Z,99.71
2022-11-30T13:26:10.428Z,99.77
2022-11-30T13:28:41.859Z,99.72
2022-11-30T13:31:29.387Z,99.46
2022-11-30T13:34:01.141Z,99.39
2022-11-30T13:36:45.029Z,99.46
2022-11-30T13:39:27.436Z,99.38
2022-11-30T13:42:02.015Z,99.22
2022-11-30T13:44:43.810Z,99.57
2022-11-30T13:47:34.982Z,99.46
2022-11-30T13:50:39.261Z,99.51
2022-11-30T13:53:19.950Z,99.76
2022-11-30T13:55:48.485Z,99.77
2022-11-30T13:58:18.614Z,99.74
2022-11-30T14:00:48.939Z,99.75
2022-11-30T14:03:20.690Z,99.61
2022-11-30T14:05:51.845Z,99.94
2022-11-30T14:08:23.485Z,99.97
2022-11-30T14:10:53.853Z,99.69
2022-11-30T14:13:28.904Z,99.73
2022-11-30T14:16:02.299Z,99.80
2022-11-30T14:18:39.228Z,99.58
2022-11-30T14:21:23.364Z,99.70
2022-11-30T14:24:17.956Z,99.44
2022-11-30T14:26:48.722Z,99.39
2022-11-30T14:29:37.567Z,99.48
2022-11-30T14:32:38.292Z,99.84
2022-11-30T14:35:13.408Z,99.73
2022-11-30T14:37:45.897Z,99.85
2022-11-30T14:40:18.963Z,99.88
2022-11-30T14:42:51.307Z,99.95
2022-11-30T14:45:31.859Z,99.94
2022-11-30T14:48:14.753Z,99.91
2022-11-30T14:50:53.771Z,99.92
2022-11-30T14:53:44.267Z,99.96
2022-11-30T14:56:32.204Z,99.65
2022-11-30T14:59:19.489Z,99.68
2022-11-30T15:01:49.462Z,99.57
2022-11-30T15:04:18.546Z,99.61
2022-11-30T15:06:47.227Z,99.61
2022-11-30T15:09:23.183Z,99.35
2022-11-30T15:11:53.391Z,99.49
2022-11-30T15:14:23.002Z,98.94
2022-11-30T15:16:57.446Z,99.10
2022-11-30T15:19:33.585Z,99.01
2022-11-30T15:22:02.187Z,99.10
2022-11-30T15:24:30.936Z,99.33
2022-11-30T15:27:11.115Z,99.05
2022-11-30T15:29:44.323Z,99.15
2022-11-30T15:32:17.990Z,98.81
2022-11-30T15:34:56.564Z,98.47
2022-11-30T15:37:31.754Z,98.24
2022-11-30T15:40:03.250Z,98.18
2022-11-30T15:42:44.277Z,98.35
2022-11-30T15:45:29.865Z,98.41
2022-11-30T15:48:00.307Z,98.01
2022-11-30T15:50:37.831Z,97.77
2022-11-30T15:53:26.947Z,97.70
2022-11-30T15:55:57.224Z,98.03
2022-11-30T15:58:40.712Z,97.93
2022-11-30T16:01:17.424Z,98.34
2022-11-30T16:03:55.607Z,98.16
2022-11-30T16:06:37.920Z,98.01
2022-11-30T16:09:21.548Z,97.62
2022-11-30T16:11:59.212Z,97.97
2022-11-30T16:14:29.417Z,97.93
2022-11-30T16:17:02.774Z,97.60
2022-11-30T16:19:35.590Z,97.87
2022-11-30T16:22:05.245Z,97.79
2022-11-30T16:24:35.145Z,97.99
2022-11-30T16:27:17.852Z,97.92
2022-11-30T16:29:52.007Z,98.07
2022-11-30T16:32:22.048Z,98.16
2022-11-30T16:34:50.886Z,97.91
2022-11-30T16:37:21.705Z,98.11
2022-11-30T16:39:51.309Z,98.17
2022-11-30T16:42:21.349Z,98.10
2022-11-30T16:44:51.266Z,98.45
2022-11-30T16:47:20.704Z,98.16
2022-11-30T16:49:50.485Z,98.00
2022-11-30T16:52:19.668Z,97.61
2022-11-30T16:54:51.010Z,97.85
2022-11-30T16:57:22.160Z,97.79
2022-11-30T16:59:51.668Z,97.58
2022-11-30T17:02:21.940Z,97.46
2022-11-30T17:04:52.015Z,97.60
2022-11-30T17:07:20.831Z,97.61
2022-11-30T17:09:50.821Z,97.48
2022-11-30T17:12:20.920Z,97.36
2022-11-30T17:14:52.306Z,97.17
2022-11-30T17:17:21.467Z,96.89
2022-11-30T17:19:51.197Z,96.94
2022-11-30T17:22:21.084Z,96.66
2022-11-30T17:24:50.783Z,96.97
2022-11-30T17:27:20.929Z,97.12
2022-11-30T17:29:50.845Z,97.31
2022-11-30T17:32:20.547Z,96.92
2022-11-30T17:34:50.244Z,96.96
2022-11-30T17:37:20.429Z,97.06
2022-11-30T17:39:50.945Z,96.89
2022-11-30T17:42:20.103Z,96.85
2022-11-30T17:44:50.704Z,96.99
2022-11-30T17:47:20.705Z,97.10
2022-11-30T17:49:50.971Z,97.18
2022-11-30T17:52:20.596Z,97.24
2022-11-30T17:54:50.949Z,97.14
2022-11-30T17:57:20.638Z,97.13
2022-11-30T17:59:50.628Z,97.15
2022-11-30T18:02:21.168Z,97.12
2022-11-30T18:04:51.173Z,97.19
2022-11-30T18:07:21.984Z,96.96
2022-11-30T18:09:53.498Z,96.87
2022-11-30T18:12:23.999Z,97.08
2022-11-30T18:14:54.934Z,97.05
2022-11-30T18:17:25.253Z,97.31
2022-11-30T18:19:55.766Z,97.40
2022-11-30T18:22:27.011Z,97.47
2022-11-30T18:24:57.715Z,97.20
2022-11-30T18:27:28.042Z,97.27
2022-11-30T18:29:58.743Z,97.63
2022-11-30T18:32:32.584Z,97.29
2022-11-30T18:35:03.167Z,97.08
2022-11-30T18:37:34.705Z,97.06
2022-11-30T18:40:11.582Z,97.05
2022-11-30T18:42:42.213Z,97.00
2022-11-30T18:45:13.547Z,97.29
2022-11-30T18:47:44.078Z,97.12
2022-11-30T18:50:14.021Z,97.41
2022-11-30T18:52:42.984Z,97.20
2022-11-30T18:55:14.126Z,97.01
2022-11-30T18:57:48.664Z,96.79
2022-11-30T19:00:20.203Z,97.03
2022-11-30T19:02:51.895Z,96.95
2022-11-30T19:05:36.220Z,96.95
2022-11-30T19:08:07.924Z,96.81
2022-11-30T19:10:40.975Z,96.70
2022-11-30T19:13:11.924Z,96.56
2022-11-30T19:15:43.125Z,96.73
2022-11-30T19:18:13.171Z,96.65
2022-11-30T19:20:43.835Z,96.52
2022-11-30T19:23:14.305Z,96.38
2022-11-30T19:25:45.047Z,96.63
2022-11-30T19:28:15.485Z,96.51
2022-11-30T19:30:46.800Z,96.26
2022-11-30T19:33:17.666Z,96.52
2022-11-30T19:35:47.704Z,96.39
2022-11-30T19:38:19.042Z,96.45
2022-11-30T19:40:49.278Z,96.60
2022-11-30T19:43:20.179Z,96.50
2022-11-30T19:45:50.765Z,96.39
2022-11-30T19:48:20.446Z,96.10
2022-11-30T19:50:53.740Z,95.87
2022-11-30T19:53:24.027Z,95.94
2022-11-30T19:55:53.778Z,96.04
2022-11-30T19:58:25.096Z,95.85
2022-11-30T20:00:57.800Z,96.07
2022-11-30T20:03:29.841Z,95.94
2022-11-30T20:06:00.565Z,96.07
2022-11-30T20:08:31.304Z,95.75
2022-11-30T20:11:01.832Z,95.65
2022-11-30T20:13:33.643Z,95.34
2022-11-30T20:16:09.903Z,95.33
2022-11-30T20:18:45.769Z,95.58
2022-11-30T20:21:21.682Z,95.31
2022-11-30T20:23:54.604Z,95.28
2022-11-30T20:26:32.876Z,95.58
2022-11-30T20:29:05.968Z,95.60
2022-11-30T20:31:38.556Z,95.68
2022-11-30T20:34:10.167Z,95.53
2022-11-30T20:36:40.823Z,95.64
2022-11-30T20:39:14.267Z,95.44
2022-11-30T20:41:55.305Z,95.64
2022-11-30T20:44:26.344Z,95.41
2022-11-30T20:46:56.710Z,95.49
2022-11-30T20:49:29.715Z,95.46
2022-11-30T20:52:00.689Z,95.46
2022-11-30T20:54:31.665Z,95.34
2022-11-30T20:57:02.544Z,95.39
2022-11-30T20:59:33.045Z,95.45
2022-11-30T21:02:04.783Z,95.11
2022-11-30T21:04:35.205Z,94.94
2022-11-30T21:07:07.499Z,95.08
2022-11-30T21:09:36.725Z,94.97
2022-11-30T21:12:06.873Z,95.00
2022-11-30T21:14:36.706Z,94.98
2022-11-30T21:17:06.566Z,95.06
2022-11-30T21:19:36.807Z,95.37
2022-11-30T21:22:05.706Z,95.05
2022-11-30T21:24:35.584Z,95.06
2022-11-30T21:27:05.420Z,95.20
2022-11-30T21:29:35.794Z,94.93
2022-11-30T21:32:05.514Z,94.96
2022-11-30T21:34:34.227Z,94.85
2022-11-30T21:37:03.448Z,95.01
2022-11-30T21:39:33.128Z,95.03
2022-11-30T21:42:02.091Z,95.38
2022-11-30T21:44:31.846Z,95.23
2022-11-30T21:47:01.721Z,95.21
2022-11-30T21:49:30.546Z,95.38
2022-11-30T21:51:59.546Z,95.38
2022-11-30T21:54:28.425Z,95.26
2022-11-30T21:56:57.304Z,94.96
2022-11-30T21:59:26.213Z,94.95
2022-11-30T22:01:55.089Z,95.24
2022-11-30T22:04:24.150Z,95.27
2022-11-30T22:06:52.861Z,95.09
2022-11-30T22:09:21.665Z,94.83
2022-11-30T22:11:50.665Z,94.73
2022-11-30T22:14:19.444Z,94.77
2022-11-30T22:16:48.125Z,94.69
2022-11-30T22:19:17.935Z,94.66
2022-11-30T22:21:49.971Z,94.48
2022-11-30T22:24:19.108Z,94.56
2022-11-30T22:26:49.471Z,94.63
2022-11-30T22:29:20.832Z,94.46
2022-11-30T22:31:51.692Z,94.24
2022-11-30T22:34:21.238Z,94.35
2022-11-30T22:36:49.908Z,94.36
2022-11-30T22:39:21.567Z,94.47
2022-11-30T22:41:55.166Z,94.46
2022-11-30T22:44:26.026Z,94.61
2022-11-30T22:46:54.675Z,94.25
2022-11-30T22:49:24.365Z,93.94
2022-11-30T22:51:53.086Z,94.04
2022-11-30T22:54:22.270Z,93.76
2022-11-30T22:56:50.745Z,93.81
2022-11-30T22:59:19.656Z,93.88
2022-11-30T23:01:50.675Z,94.16
2022-11-30T23:04:21.465Z,94.21
2022-11-30T23:06:50.707Z,94.49
2022-11-30T23:09:21.749Z,94.45
2022-11-30T23:11:51.173Z,94.13
2022-11-30T23:14:19.971Z,93.93
2022-11-30T23:16:48.866Z,94.08
2022-11-30T23:19:18.668Z,93.91
2022-11-30T23:21:47.329Z,94.04
2022-11-30T23:24:20.915Z,93.76
2022-11-30T23:26:50.246Z,93.55
2022-11-30T23:29:18.820Z,93.62
2022-11-30T23:31:48.877Z,93.77
2022-11-30T23:34:21.421Z,94.18
2022-11-30T23:36:51.924Z,93.98
2022-11-30T23:39:21.147Z,94.48
2022-11-30T23:41:50.127Z,94.35
2022-11-30T23:44:18.694Z,94.34
2022-11-30T23:46:47.369Z,94.59
2022-11-30T23:49:16.370Z,94.52
2022-11-30T23:51:45.058Z,94.31
2022-11-30T23:54:13.868Z,94.50
2022-11-30T23:56:43.144Z,94.17
2022-11-30T23:59:11.730Z,94.21
